Arboga, California
Current Conditions -  °F | °C
As of 1:53 PM on Sunday 23 Nov 2014 (Local Time) from KMYV Reporting Station
Clear Clear  
Wind Chill: 15°   Ceiling: Unl
Heat Index: 15°   Visibility: 10mi
Dew Point:   Wind: 9mph
Humidity: 51%   Direction: 340°NNW
Pressure: 30.29"   Gusts: NA
Location:  39.0904°N, 121.552°W
Report Text: KMYV 232153Z AUTO 34008KT 10SM CLR 15/05 A3029 RMK AO2 SLP259 T01500050
Loading
Personal Weather Stations






























Interactive Weather Map New forecast layout! Learn more

10-Day Weather Forecast

Advertisements
Track Severe Weather on mobile